createdAt,value
2023-01-12T00:02:33.884Z,69.70
2023-01-12T00:05:23.946Z,70.30
2023-01-12T00:08:12.616Z,70.90
2023-01-12T00:11:01.252Z,70.70
2023-01-12T00:13:49.934Z,70.80
2023-01-12T00:16:42.064Z,70.70
2023-01-12T00:19:30.892Z,70.20
2023-01-12T00:22:21.985Z,69.10
2023-01-12T00:25:10.797Z,69.30
2023-01-12T00:27:59.892Z,69.30
2023-01-12T00:30:48.523Z,70.00
2023-01-12T00:33:38.165Z,70.80
2023-01-12T00:36:27.352Z,70.30
2023-01-12T00:39:18.124Z,69.80
2023-01-12T00:42:24.719Z,70.30
2023-01-12T00:45:22.536Z,69.70
2023-01-12T00:48:12.808Z,67.20
2023-01-12T00:51:04.745Z,68.80
2023-01-12T00:53:53.389Z,69.60
2023-01-12T00:56:43.411Z,69.40
2023-01-12T00:59:32.217Z,68.80
2023-01-12T01:02:21.044Z,69.90
2023-01-12T01:05:10.491Z,68.40
2023-01-12T01:07:59.113Z,69.40
2023-01-12T01:10:47.761Z,68.10
2023-01-12T01:13:40.662Z,67.00
2023-01-12T01:16:29.703Z,67.80
2023-01-12T01:19:18.372Z,68.30
2023-01-12T01:22:06.974Z,68.10
2023-01-12T01:24:55.604Z,68.40
2023-01-12T01:27:44.211Z,69.60
2023-01-12T01:30:34.197Z,69.10
2023-01-12T01:33:22.820Z,68.00
2023-01-12T01:36:12.591Z,68.10
2023-01-12T01:39:01.231Z,68.70
2023-01-12T01:41:49.860Z,69.20
2023-01-12T01:44:54.037Z,69.70
2023-01-12T01:47:47.999Z,69.70
2023-01-12T01:50:39.329Z,69.00
2023-01-12T01:53:33.330Z,69.30
2023-01-12T01:56:25.719Z,69.30
2023-01-12T01:59:17.351Z,70.50
2023-01-12T02:02:06.208Z,72.00
2023-01-12T02:04:57.197Z,73.30
2023-01-12T02:07:45.894Z,73.70
2023-01-12T02:10:34.647Z,74.70
2023-01-12T02:13:41.373Z,75.70
2023-01-12T02:16:33.186Z,77.20
2023-01-12T02:19:45.097Z,76.30
2023-01-12T02:23:05.836Z,76.70
2023-01-12T02:26:39.454Z,77.80
2023-01-12T02:30:10.454Z,76.90
2023-01-12T02:33:23.853Z,77.80
2023-01-12T02:36:20.398Z,77.30
2023-01-12T02:39:14.295Z,77.00
2023-01-12T02:42:29.788Z,76.90
2023-01-12T02:45:28.511Z,78.30
2023-01-12T02:48:23.217Z,79.50
2023-01-12T02:51:16.251Z,80.40
2023-01-12T02:54:08.673Z,81.80
2023-01-12T02:57:02.365Z,82.40
2023-01-12T02:59:52.463Z,81.60
2023-01-12T03:02:41.100Z,82.50
2023-01-12T03:05:31.154Z,81.40
2023-01-12T03:08:23.761Z,81.00
2023-01-12T03:11:17.096Z,81.80
2023-01-12T03:14:08.062Z,81.60
2023-01-12T03:16:58.491Z,82.50
2023-01-12T03:19:48.472Z,82.90
2023-01-12T03:22:39.875Z,83.70
2023-01-12T03:25:32.139Z,82.70
2023-01-12T03:28:23.313Z,82.80
2023-01-12T03:31:15.681Z,82.80
2023-01-12T03:34:05.012Z,83.20
2023-01-12T03:36:59.742Z,83.60
2023-01-12T03:39:57.403Z,82.80
2023-01-12T03:42:52.432Z,83.70
2023-01-12T03:45:45.953Z,83.60
2023-01-12T03:48:39.870Z,82.70
2023-01-12T03:51:32.321Z,82.90
2023-01-12T03:54:22.627Z,82.20
2023-01-12T03:57:14.378Z,82.80
2023-01-12T04:00:05.277Z,83.50
2023-01-12T04:03:04.335Z,84.50
2023-01-12T04:05:53.062Z,84.50
2023-01-12T04:08:41.665Z,85.50
2023-01-12T04:11:47.391Z,86.30
2023-01-12T04:14:37.491Z,87.10
2023-01-12T04:17:28.070Z,86.80
2023-01-12T04:20:17.394Z,88.00
2023-01-12T04:23:05.536Z,88.50
2023-01-12T04:25:54.173Z,88.90
2023-01-12T04:28:42.772Z,87.80
2023-01-12T04:31:32.848Z,88.60
2023-01-12T04:34:21.575Z,87.70
2023-01-12T04:37:10.414Z,87.40
2023-01-12T04:39:58.995Z,87.10
2023-01-12T04:43:07.424Z,86.50
2023-01-12T04:45:56.351Z,85.90
2023-01-12T04:48:46.779Z,85.90
2023-01-12T04:51:35.655Z,84.70
2023-01-12T04:54:24.289Z,85.10
2023-01-12T04:57:12.941Z,84.90
2023-01-12T05:00:01.614Z,85.10
2023-01-12T05:02:50.533Z,85.10
2023-01-12T05:05:40.555Z,83.60
2023-01-12T05:08:46.770Z,84.90
2023-01-12T05:11:35.450Z,85.00
2023-01-12T05:14:24.096Z,85.70
2023-01-12T05:17:12.726Z,85.00
2023-01-12T05:20:01.396Z,84.20
2023-01-12T05:22:52.703Z,83.60
2023-01-12T05:25:41.288Z,83.80
2023-01-12T05:28:30.038Z,83.60
2023-01-12T05:31:19.589Z,84.20
2023-01-12T05:34:08.317Z,83.80
2023-01-12T05:36:56.918Z,84.50
2023-01-12T05:39:46.966Z,84.70
2023-01-12T05:42:55.310Z,85.80
2023-01-12T05:45:43.917Z,86.20
2023-01-12T05:48:33.064Z,86.00
2023-01-12T05:51:22.420Z,87.30
2023-01-12T05:54:11.320Z,88.80
2023-01-12T05:57:01.322Z,90.30
2023-01-12T05:59:49.932Z,90.80
2023-01-12T06:02:38.665Z,92.90
2023-01-12T06:05:27.308Z,94.60
2023-01-12T06:08:15.937Z,96.50
2023-01-12T06:11:04.932Z,98.40
2023-01-12T06:13:59.436Z,99.90
2023-01-12T06:16:48.027Z,99.90
2023-01-12T06:19:36.632Z,99.90
2023-01-12T06:22:27.139Z,99.90
2023-01-12T06:25:15.906Z,99.90
2023-01-12T06:28:07.004Z,99.90
2023-01-12T06:31:01.838Z,99.90
2023-01-12T06:33:50.503Z,99.90
2023-01-12T06:36:39.875Z,99.90
2023-01-12T06:39:28.447Z,99.90
2023-01-12T06:42:32.982Z,99.90
2023-01-12T06:45:21.627Z,99.90
2023-01-12T06:48:11.829Z,99.90
2023-01-12T06:51:02.255Z,99.90
2023-01-12T06:53:50.904Z,99.90
2023-01-12T06:56:39.535Z,99.90
2023-01-12T06:59:28.133Z,99.90
2023-01-12T07:02:18.195Z,99.90
2023-01-12T07:05:08.878Z,99.90
2023-01-12T07:08:01.234Z,99.90
2023-01-12T07:10:49.865Z,99.90
2023-01-12T07:13:38.501Z,99.90
2023-01-12T07:16:27.153Z,99.90
2023-01-12T07:19:15.767Z,99.90
2023-01-12T07:22:05.835Z,99.90
2023-01-12T07:24:56.459Z,99.90
2023-01-12T07:27:50.570Z,99.90
2023-01-12T07:30:39.221Z,99.90
2023-01-12T07:33:27.825Z,99.90
2023-01-12T07:36:16.399Z,99.90
2023-01-12T07:39:07.582Z,99.90
2023-01-12T07:42:13.515Z,99.90
2023-01-12T07:45:02.098Z,99.90
2023-01-12T07:47:54.238Z,99.90
2023-01-12T07:50:42.888Z,99.90
2023-01-12T07:53:31.521Z,99.90
2023-01-12T07:56:21.564Z,99.90
2023-01-12T07:59:10.342Z,99.90
2023-01-12T08:01:59.011Z,99.90
2023-01-12T08:04:48.553Z,99.90
2023-01-12T08:07:37.182Z,99.90
2023-01-12T08:10:25.822Z,99.90
2023-01-12T08:13:15.845Z,99.90
2023-01-12T08:16:10.163Z,99.90
2023-01-12T08:19:02.613Z,99.90
2023-01-12T08:21:56.726Z,99.90
2023-01-12T08:24:50.487Z,99.90
2023-01-12T08:27:42.349Z,99.90
2023-01-12T08:30:32.647Z,99.90
2023-01-12T08:33:21.848Z,99.90
2023-01-12T08:36:14.323Z,99.90
2023-01-12T08:39:04.392Z,99.90
2023-01-12T08:41:53.179Z,99.90
2023-01-12T08:44:41.917Z,99.90
2023-01-12T08:47:31.966Z,99.90
2023-01-12T08:50:20.764Z,99.90
2023-01-12T08:53:11.458Z,99.90
2023-01-12T08:56:00.131Z,99.90
2023-01-12T08:58:48.776Z,99.90
2023-01-12T09:01:37.698Z,99.90
2023-01-12T09:04:27.858Z,99.90
2023-01-12T09:07:17.272Z,99.90
2023-01-12T09:10:07.048Z,99.90
2023-01-12T09:12:55.630Z,99.90
2023-01-12T09:15:56.484Z,99.90
2023-01-12T09:18:53.908Z,99.90
2023-01-12T09:21:44.356Z,99.90
2023-01-12T09:24:32.944Z,99.90
2023-01-12T09:27:21.742Z,99.90
2023-01-12T09:30:12.453Z,99.90
2023-01-12T09:33:01.067Z,99.90
2023-01-12T09:35:49.676Z,99.90
2023-01-12T09:38:40.764Z,99.90
2023-01-12T09:41:49.192Z,99.90
2023-01-12T09:44:58.210Z,99.90
2023-01-12T09:47:54.998Z,99.90
2023-01-12T09:50:49.996Z,99.90
2023-01-12T09:53:42.433Z,99.90
2023-01-12T09:56:36.583Z,99.90
2023-01-12T09:59:41.314Z,99.90
2023-01-12T10:02:34.308Z,99.90
2023-01-12T10:05:40.513Z,99.50
2023-01-12T10:08:34.793Z,99.90
2023-01-12T10:11:30.526Z,99.90
2023-01-12T10:14:58.353Z,99.90
2023-01-12T10:17:52.171Z,99.60
2023-01-12T10:20:44.309Z,98.30
2023-01-12T10:23:32.918Z,97.20
2023-01-12T10:26:25.688Z,95.60
2023-01-12T10:29:14.405Z,95.70
2023-01-12T10:32:03.200Z,94.40
2023-01-12T10:34:53.286Z,93.70
2023-01-12T10:37:46.028Z,93.30
2023-01-12T10:40:35.743Z,93.10
2023-01-12T10:43:32.335Z,94.30
2023-01-12T10:46:23.596Z,94.10
2023-01-12T10:49:20.385Z,95.70
2023-01-12T10:52:12.269Z,95.90
2023-01-12T10:55:01.103Z,96.90
2023-01-12T10:57:50.734Z,96.70
2023-01-12T11:00:48.063Z,97.20
2023-01-12T11:03:39.430Z,97.60
2023-01-12T11:06:30.898Z,98.10
2023-01-12T11:09:23.570Z,98.00
2023-01-12T11:12:29.450Z,98.00
2023-01-12T11:15:20.055Z,97.70
2023-01-12T11:18:30.013Z,98.40
2023-01-12T11:21:21.204Z,98.90
2023-01-12T11:24:18.344Z,99.70
2023-01-12T11:27:18.675Z,98.70
2023-01-12T11:30:17.489Z,97.50
2023-01-12T11:33:13.856Z,96.80
2023-01-12T11:36:08.913Z,95.60
2023-01-12T11:39:02.905Z,95.30
2023-01-12T11:42:12.522Z,95.60
2023-01-12T11:45:07.767Z,95.10
2023-01-12T11:48:01.165Z,94.60
2023-01-12T11:50:51.115Z,95.40
2023-01-12T11:53:41.722Z,95.50
2023-01-12T11:56:54.462Z,95.70
2023-01-12T11:59:49.738Z,95.90
2023-01-12T12:02:41.671Z,96.90
2023-01-12T12:05:41.321Z,98.60
2023-01-12T12:08:44.700Z,97.70
2023-01-12T12:11:43.929Z,97.10
2023-01-12T12:14:57.190Z,95.60
2023-01-12T12:17:54.862Z,95.50
2023-01-12T12:20:52.524Z,96.40
2023-01-12T12:23:53.435Z,96.30
2023-01-12T12:26:48.277Z,96.10
2023-01-12T12:30:07.513Z,95.80
2023-01-12T12:33:04.908Z,94.90
2023-01-12T12:36:09.630Z,94.30
2023-01-12T12:39:27.371Z,93.70
2023-01-12T12:42:52.179Z,95.10
2023-01-12T12:45:48.349Z,96.30
2023-01-12T12:48:45.328Z,96.00
2023-01-12T12:51:36.276Z,96.50
2023-01-12T12:54:25.788Z,97.40
2023-01-12T12:57:17.034Z,96.70
2023-01-12T13:00:30.373Z,96.30
2023-01-12T13:03:57.481Z,95.00
2023-01-12T13:06:49.754Z,91.80
2023-01-12T13:09:41.411Z,91.60
2023-01-12T13:12:34.688Z,91.60
2023-01-12T13:15:32.569Z,91.20
2023-01-12T13:18:43.642Z,89.80
2023-01-12T13:21:33.829Z,90.20
2023-01-12T13:24:42.886Z,90.40
2023-01-12T13:27:52.532Z,91.50
2023-01-12T13:30:51.467Z,93.90
2023-01-12T13:33:40.107Z,94.30
2023-01-12T13:36:32.601Z,94.40
2023-01-12T13:39:22.617Z,94.40
2023-01-12T13:42:40.557Z,94.10
2023-01-12T13:45:29.259Z,93.50
2023-01-12T13:48:20.397Z,93.50
2023-01-12T13:51:17.916Z,91.80
2023-01-12T13:54:08.862Z,91.40
2023-01-12T13:57:01.065Z,89.90
2023-01-12T14:00:05.135Z,90.70
2023-01-12T14:02:55.500Z,89.40
2023-01-12T14:06:00.414Z,90.10
2023-01-12T14:08:59.014Z,89.40
2023-01-12T14:12:17.730Z,90.00
2023-01-12T14:15:36.886Z,90.60
2023-01-12T14:18:27.517Z,87.40
2023-01-12T14:21:24.845Z,87.10
2023-01-12T14:24:17.479Z,87.00
2023-01-12T14:27:17.309Z,88.50
2023-01-12T14:30:12.713Z,87.70
2023-01-12T14:33:01.395Z,88.40
2023-01-12T14:35:52.291Z,87.10
2023-01-12T14:38:43.744Z,87.90
2023-01-12T14:41:49.946Z,87.20
2023-01-12T14:44:58.279Z,87.70
2023-01-12T14:47:48.470Z,87.70
2023-01-12T14:50:37.097Z,87.90
2023-01-12T14:53:39.629Z,87.10
2023-01-12T14:56:33.562Z,87.50
2023-01-12T14:59:23.944Z,86.50
2023-01-12T15:02:40.021Z,87.10
2023-01-12T15:05:31.894Z,88.50
2023-01-12T15:08:27.138Z,88.70
2023-01-12T15:11:15.965Z,89.90
2023-01-12T15:14:06.851Z,91.10
2023-01-12T15:17:13.197Z,91.40
2023-01-12T15:20:19.262Z,92.20
2023-01-12T15:23:30.292Z,93.30
2023-01-12T15:26:19.483Z,94.40
2023-01-12T15:29:09.781Z,95.60
2023-01-12T15:31:58.470Z,95.80
2023-01-12T15:34:47.353Z,95.60
2023-01-12T15:37:37.716Z,96.50
2023-01-12T15:40:28.806Z,95.40
2023-01-12T15:43:18.701Z,94.60
2023-01-12T15:46:07.307Z,91.70
2023-01-12T15:48:55.977Z,90.00
2023-01-12T15:51:47.974Z,90.20
2023-01-12T15:54:36.648Z,90.10
2023-01-12T15:57:26.639Z,89.90
2023-01-12T16:00:17.036Z,89.00
2023-01-12T16:03:06.254Z,89.10
2023-01-12T16:05:54.881Z,88.40
2023-01-12T16:08:44.191Z,87.40
2023-01-12T16:11:34.847Z,87.70
2023-01-12T16:14:26.580Z,88.20
2023-01-12T16:17:15.220Z,89.60
2023-01-12T16:20:04.103Z,89.10
2023-01-12T16:22:52.685Z,89.30
2023-01-12T16:25:41.339Z,89.40
2023-01-12T16:28:30.685Z,88.40
2023-01-12T16:31:21.107Z,87.80
2023-01-12T16:34:09.734Z,88.10
2023-01-12T16:37:00.579Z,86.00
2023-01-12T16:39:49.308Z,85.50
2023-01-12T16:42:37.879Z,85.30
2023-01-12T16:45:26.423Z,83.20
2023-01-12T16:48:16.424Z,84.30
2023-01-12T16:51:05.176Z,83.70
2023-01-12T16:53:57.372Z,84.30
2023-01-12T16:56:45.958Z,84.60
2023-01-12T16:59:35.762Z,86.70
2023-01-12T17:02:25.418Z,86.10
2023-01-12T17:05:17.216Z,87.50
2023-01-12T17:08:09.550Z,89.50
2023-01-12T17:10:58.292Z,90.60
2023-01-12T17:13:52.404Z,91.70
2023-01-12T17:16:41.304Z,92.70
2023-01-12T17:19:31.484Z,92.80
2023-01-12T17:22:21.676Z,93.50
2023-01-12T17:25:10.676Z,94.20
2023-01-12T17:27:59.285Z,94.70
2023-01-12T17:30:48.065Z,95.80
2023-01-12T17:33:39.049Z,96.80
2023-01-12T17:36:27.746Z,98.40
2023-01-12T17:39:17.814Z,99.30
2023-01-12T17:42:23.981Z,99.20
2023-01-12T17:45:12.575Z,98.60
2023-01-12T17:48:01.416Z,98.20
2023-01-12T17:50:50.237Z,98.10
2023-01-12T17:53:38.852Z,99.80
2023-01-12T17:56:32.920Z,99.90
2023-01-12T17:59:23.672Z,99.90
2023-01-12T18:02:14.412Z,99.90
2023-01-12T18:05:03.154Z,99.90
2023-01-12T18:07:52.194Z,99.90
2023-01-12T18:10:40.813Z,99.90
2023-01-12T18:13:30.905Z,99.90
2023-01-12T18:16:19.872Z,99.90
2023-01-12T18:19:10.404Z,99.90
2023-01-12T18:21:59.019Z,99.90
2023-01-12T18:24:47.852Z,99.90
2023-01-12T18:27:36.473Z,99.90
2023-01-12T18:30:27.357Z,99.90
2023-01-12T18:33:15.930Z,99.90
2023-01-12T18:36:09.580Z,99.90
2023-01-12T18:38:58.138Z,99.90
2023-01-12T18:42:04.354Z,99.90
2023-01-12T18:44:52.965Z,99.90
2023-01-12T18:48:00.404Z,99.90
2023-01-12T18:51:10.728Z,99.90
2023-01-12T18:53:59.375Z,99.90
2023-01-12T18:56:49.916Z,99.90
2023-01-12T18:59:40.389Z,99.90
2023-01-12T19:02:30.394Z,99.90
2023-01-12T19:05:24.597Z,99.90
2023-01-12T19:08:30.726Z,99.90
2023-01-12T19:11:19.373Z,99.90
2023-01-12T19:14:25.585Z,99.90
2023-01-12T19:17:29.895Z,99.90
2023-01-12T19:20:21.184Z,99.90
2023-01-12T19:23:29.904Z,99.90
2023-01-12T19:26:35.534Z,99.90
2023-01-12T19:29:24.119Z,99.90
2023-01-12T19:32:12.807Z,99.90
2023-01-12T19:35:10.226Z,99.90
2023-01-12T19:38:00.845Z,99.90
2023-01-12T19:40:53.647Z,99.90
2023-01-12T19:43:45.475Z,99.90
2023-01-12T19:46:34.610Z,99.90
2023-01-12T19:49:23.232Z,99.90
2023-01-12T19:52:11.981Z,99.90
2023-01-12T19:55:02.673Z,99.90
2023-01-12T19:57:51.926Z,99.90
2023-01-12T20:00:45.162Z,99.90
2023-01-12T20:03:34.500Z,99.90
2023-01-12T20:06:24.932Z,99.90
2023-01-12T20:09:13.499Z,98.00
2023-01-12T20:12:04.377Z,98.30
2023-01-12T20:14:54.222Z,97.50
2023-01-12T20:17:43.148Z,96.90
2023-01-12T20:20:31.762Z,98.10
2023-01-12T20:23:20.406Z,99.90
2023-01-12T20:26:11.424Z,99.90
2023-01-12T20:29:02.615Z,99.90
2023-01-12T20:31:52.465Z,99.90
2023-01-12T20:34:41.116Z,99.90
2023-01-12T20:37:29.772Z,99.90
2023-01-12T20:40:19.226Z,99.90
2023-01-12T20:43:07.858Z,99.90
2023-01-12T20:45:57.850Z,99.90
2023-01-12T20:48:46.475Z,99.90
2023-01-12T20:51:35.101Z,99.90
2023-01-12T20:54:23.720Z,99.90
2023-01-12T20:57:13.059Z,99.90
2023-01-12T21:00:02.232Z,99.90
2023-01-12T21:02:52.209Z,99.90
2023-01-12T21:05:42.992Z,99.90
2023-01-12T21:08:31.595Z,99.90
2023-01-12T21:11:21.708Z,99.90
2023-01-12T21:14:10.361Z,99.90
2023-01-12T21:16:59.053Z,99.90
2023-01-12T21:19:49.146Z,99.90
2023-01-12T21:22:37.816Z,99.90
2023-01-12T21:25:28.840Z,99.90
2023-01-12T21:28:17.418Z,99.90
2023-01-12T21:31:06.762Z,99.90
2023-01-12T21:33:55.356Z,99.90
2023-01-12T21:36:45.780Z,99.90
2023-01-12T21:39:35.011Z,99.90
2023-01-12T21:42:48.372Z,99.90
2023-01-12T21:46:07.722Z,99.90
2023-01-12T21:49:29.734Z,99.90
2023-01-12T21:52:35.071Z,99.90
2023-01-12T21:55:59.587Z,99.90
2023-01-12T21:59:05.611Z,99.90
2023-01-12T22:02:07.462Z,99.90
2023-01-12T22:05:21.442Z,99.90
2023-01-12T22:08:37.215Z,99.90
2023-01-12T22:12:26.754Z,99.90
2023-01-12T22:15:47.451Z,99.90
2023-01-12T22:18:39.964Z,99.90
2023-01-12T22:21:31.058Z,99.90
2023-01-12T22:24:23.761Z,99.90
2023-01-12T22:27:16.301Z,99.90
2023-01-12T22:30:07.996Z,99.90
2023-01-12T22:33:09.728Z,99.90
2023-01-12T22:36:03.171Z,99.90
2023-01-12T22:38:54.384Z,99.90
2023-01-12T22:41:44.470Z,99.90
2023-01-12T22:44:33.093Z,99.90
2023-01-12T22:47:21.673Z,99.90
2023-01-12T22:50:11.819Z,99.90
2023-01-12T22:53:00.399Z,99.90
2023-01-12T22:55:49.076Z,99.90
2023-01-12T22:58:39.257Z,99.90
2023-01-12T23:01:28.245Z,99.90
2023-01-12T23:04:17.169Z,99.90
2023-01-12T23:07:06.061Z,99.90
2023-01-12T23:09:55.026Z,99.90
2023-01-12T23:13:04.755Z,99.90
2023-01-12T23:15:58.291Z,99.90
2023-01-12T23:18:48.621Z,99.90
2023-01-12T23:21:37.413Z,99.90
2023-01-12T23:24:26.427Z,99.90
2023-01-12T23:27:15.259Z,99.90
2023-01-12T23:30:04.304Z,99.90
2023-01-12T23:32:54.501Z,99.90
2023-01-12T23:35:44.125Z,99.90
2023-01-12T23:38:32.994Z,99.90
2023-01-12T23:41:25.057Z,99.90
2023-01-12T23:44:16.929Z,99.90
2023-01-12T23:47:06.774Z,99.90
2023-01-12T23:49:57.915Z,99.90
2023-01-12T23:52:50.205Z,99.90
2023-01-12T23:55:40.760Z,99.90
2023-01-12T23:58:29.689Z,99.90
